Snow/Ice From: 16-12-2017 16:00 Until: 17-12-2017 16:00 warning for: Snow/Ice Level: Yellow info button

Although rather usual in this region, locally or potentially dangerous phenomena are expected. (such as local winds, summer thunderstorms, rising streams or high waves) Be aware and pay attention to the latest weather updates, especially if you carry out activities exposed to weather or close to a stream or shoreline. 


Meteo18 Weather Cam more information Meteo18 Weather Cam


Thunder radar more information blitzortung!


warning for Snow/Ice more information rain snow radar


Visit our other weather sites:

Template documentation
and downloads

And another site



Weather Underground History page Text

Daily Summary for March 29, 2017 Units:  Both    English   Metric
« Previous Day
Next Day »
Daily Weekly Monthly Yearly Custom
  High: Low: Average:
Temperature: 69.1 °F /  20.6 °C 40.6 °F /  4.8 °C 55 °F /  12.8 °C
Dew Point: 51.1 °F /  10.6 °C 39.4 °F /  4.1 °C 44.6 °F /  7 °C
Humidity: 96 % 40 % 71 %
Wind Speed: 6 mph /  9.7 km/h - 0.7 mph /  1.2 km/h
Wind Gust: 8 mph /  12.9 km/h - -
Wind:- - SW
Pressure: 30.4 in /  1029.7 hPa 30.3 in /  1026.0 hPa -
Precipitation: 0 in /  0.0 mm    
Historical Graphs
 
 
Tabular Data for March 29, 2017
Time Temperature Dew Point Pressure Wind Wind Speed Wind Gust Humidity Rainfall Rate (Hourly)
00:02 50.5 °F /  10.3 °C 45 °F /  7.2 °C 30.4 in /  1028.0 hPa Calm   1 mph /  1.6 km/h 81 % 0 in /  0.0 mm
00:12 50.5 °F /  10.3 °C 44.6 °F /  7.0 °C 30.4 in /  1028.3 hPa Calm   1 mph /  1.6 km/h 80 % 0 in /  0.0 mm
00:17 50.2 °F /  10.1 °C 44.2 °F /  6.8 °C 30.4 in /  1028.3 hPa Calm     80 % 0 in /  0.0 mm
00:22 49.8 °F /  9.9 °C 43.9 °F /  6.6 °C 30.4 in /  1028.3 hPa Calm     80 % 0 in /  0.0 mm
00:32 49.1 °F /  9.5 °C 43.9 °F /  6.6 °C 30.4 in /  1028.3 hPa Calm     82 % 0 in /  0.0 mm
00:42 48.9 °F /  9.4 °C 44.1 °F /  6.7 °C 30.4 in /  1028.7 hPa Calm     83 % 0 in /  0.0 mm
00:47 48.7 °F /  9.3 °C 44.1 °F /  6.7 °C 30.4 in /  1028.3 hPa Calm     84 % 0 in /  0.0 mm
00:52 48.9 °F /  9.4 °C 44.2 °F /  6.8 °C 30.4 in /  1028.3 hPa Calm     84 % 0 in /  0.0 mm
00:59 48.9 °F /  9.4 °C 44.1 °F /  6.7 °C 30.4 in /  1028.7 hPa Calm     83 % 0 in /  0.0 mm
01:07 49.3 °F /  9.6 °C 44.4 °F /  6.9 °C 30.4 in /  1028.7 hPa Calm   1 mph /  1.6 km/h 83 % 0 in /  0.0 mm
01:12 49.1 °F /  9.5 °C 43.9 °F /  6.6 °C 30.4 in /  1028.7 hPa Calm   1 mph /  1.6 km/h 82 % 0 in /  0.0 mm
01:17 48.6 °F /  9.2 °C 43.3 °F /  6.3 °C 30.4 in /  1028.7 hPa Calm   1 mph /  1.6 km/h 82 % 0 in /  0.0 mm
01:22 48.4 °F /  9.1 °C 43.7 °F /  6.5 °C 30.4 in /  1028.3 hPa Calm     84 % 0 in /  0.0 mm
01:32 48.7 °F /  9.3 °C 44.1 °F /  6.7 °C 30.4 in /  1028.3 hPa Calm     84 % 0 in /  0.0 mm
01:42 48.6 °F /  9.2 °C 43.7 °F /  6.5 °C 30.4 in /  1028.3 hPa Calm     83 % 0 in /  0.0 mm
01:47 48 °F /  8.9 °C 43.2 °F /  6.2 °C 30.4 in /  1028.3 hPa Calm     83 % 0 in /  0.0 mm
01:52 47.8 °F /  8.8 °C 43.2 °F /  6.2 °C 30.4 in /  1028.3 hPa Calm     84 % 0 in /  0.0 mm
01:57 47.5 °F /  8.6 °C 43.2 °F /  6.2 °C 30.4 in /  1028.3 hPa Calm     85 % 0 in /  0.0 mm
02:02 47.1 °F /  8.4 °C 42.8 °F /  6.0 °C 30.4 in /  1028.3 hPa Calm     85 % 0 in /  0.0 mm
02:07 47.1 °F /  8.4 °C 43.2 °F /  6.2 °C 30.4 in /  1028.3 hPa Calm     86 % 0 in /  0.0 mm
02:12 46.8 °F /  8.2 °C 42.8 °F /  6.0 °C 30.4 in /  1028.3 hPa Calm     86 % 0 in /  0.0 mm
02:17 46.6 °F /  8.1 °C 43 °F /  6.1 °C 30.4 in /  1028.3 hPa Calm     87 % 0 in /  0.0 mm
02:22 46.8 °F /  8.2 °C 43.3 °F /  6.3 °C 30.4 in /  1028.3 hPa Calm     88 % 0 in /  0.0 mm
02:32 46.9 °F /  8.3 °C 43.3 °F /  6.3 °C 30.4 in /  1028.3 hPa Calm     87 % 0 in /  0.0 mm
02:42 46.2 °F /  7.9 °C 42.8 °F /  6.0 °C 30.4 in /  1028.3 hPa Calm     88 % 0 in /  0.0 mm
02:52 46.6 °F /  8.1 °C 43.5 °F /  6.4 °C 30.4 in /  1028.3 hPa Calm     89 % 0 in /  0.0 mm
02:57 46.9 °F /  8.3 °C 43.5 °F /  6.4 °C 30.4 in /  1028.3 hPa Calm     88 % 0 in /  0.0 mm
03:02 47.1 °F /  8.4 °C 43.7 °F /  6.5 °C 30.4 in /  1028.3 hPa Calm     88 % 0 in /  0.0 mm
03:12 47.3 °F /  8.5 °C 43.7 °F /  6.5 °C 30.4 in /  1028.3 hPa Calm     87 % 0 in /  0.0 mm
03:17 46.9 °F /  8.3 °C 43.3 °F /  6.3 °C 30.4 in /  1028.3 hPa Calm     87 % 0 in /  0.0 mm
03:22 46.8 °F /  8.2 °C 43.2 °F /  6.2 °C 30.4 in /  1028.3 hPa Calm     87 % 0 in /  0.0 mm
03:32 46 °F /  7.8 °C 42.6 °F /  5.9 °C 30.4 in /  1028.3 hPa Calm     88 % 0 in /  0.0 mm
03:42 45.1 °F /  7.3 °C 42.1 °F /  5.6 °C 30.4 in /  1028.3 hPa Calm     89 % 0 in /  0.0 mm
03:47 44.8 °F /  7.1 °C 41.7 °F /  5.4 °C 30.4 in /  1028.3 hPa Calm     89 % 0 in /  0.0 mm
03:52 44.8 °F /  7.1 °C 42.1 °F /  5.6 °C 30.4 in /  1028.3 hPa Calm     90 % 0 in /  0.0 mm
03:57 44.4 °F /  6.9 °C 41.7 °F /  5.4 °C 30.4 in /  1028.3 hPa Calm     90 % 0 in /  0.0 mm
04:02 44.4 °F /  6.9 °C 41.9 °F /  5.5 °C 30.4 in /  1028.3 hPa Calm     91 % 0 in /  0.0 mm
04:12 44.4 °F /  6.9 °C 41.9 °F /  5.5 °C 30.4 in /  1028.0 hPa Calm     91 % 0 in /  0.0 mm
04:17 44.4 °F /  6.9 °C 41.9 °F /  5.5 °C 30.4 in /  1028.0 hPa Calm     91 % 0 in /  0.0 mm
04:22 44.2 °F /  6.8 °C 41.7 °F /  5.4 °C 30.4 in /  1028.0 hPa Calm     91 % 0 in /  0.0 mm
04:32 43.9 °F /  6.6 °C 41.4 °F /  5.2 °C 30.4 in /  1028.3 hPa Calm     91 % 0 in /  0.0 mm
04:42 43.5 °F /  6.4 °C 41.4 °F /  5.2 °C 30.4 in /  1028.3 hPa Calm     92 % 0 in /  0.0 mm
04:52 43 °F /  6.1 °C 40.8 °F /  4.9 °C 30.4 in /  1028.3 hPa Calm     92 % 0 in /  0.0 mm
04:57 42.8 °F /  6.0 °C 40.6 °F /  4.8 °C 30.4 in /  1028.3 hPa Calm     92 % 0 in /  0.0 mm
05:02 42.6 °F /  5.9 °C 40.8 °F /  4.9 °C 30.4 in /  1028.3 hPa Calm     93 % 0 in /  0.0 mm
05:07 42.6 °F /  5.9 °C 40.8 °F /  4.9 °C 30.4 in /  1028.3 hPa Calm     93 % 0 in /  0.0 mm
05:12 42.6 °F /  5.9 °C 40.8 °F /  4.9 °C 30.4 in /  1028.3 hPa Calm     93 % 0 in /  0.0 mm
05:17 42.8 °F /  6.0 °C 41.2 °F /  5.1 °C 30.4 in /  1028.3 hPa Calm     94 % 0 in /  0.0 mm
05:22 42.4 °F /  5.8 °C 40.6 °F /  4.8 °C 30.4 in /  1028.3 hPa Calm     93 % 0 in /  0.0 mm
05:32 42.3 °F /  5.7 °C 40.6 °F /  4.8 °C 30.4 in /  1028.3 hPa Calm   1 mph /  1.6 km/h 94 % 0 in /  0.0 mm
05:42 42.4 °F /  5.8 °C 40.8 °F /  4.9 °C 30.4 in /  1028.3 hPa Calm   1 mph /  1.6 km/h 94 % 0 in /  0.0 mm
05:47 42.4 °F /  5.8 °C 40.8 °F /  4.9 °C 30.4 in /  1028.3 hPa Calm     94 % 0 in /  0.0 mm
05:52 42.4 °F /  5.8 °C 40.8 °F /  4.9 °C 30.4 in /  1028.3 hPa Calm     94 % 0 in /  0.0 mm
06:02 42.4 °F /  5.8 °C 40.8 °F /  4.9 °C 30.4 in /  1028.3 hPa Calm   1 mph /  1.6 km/h 94 % 0 in /  0.0 mm
06:07 42.3 °F /  5.7 °C 40.6 °F /  4.8 °C 30.4 in /  1028.3 hPa Calm   1 mph /  1.6 km/h 94 % 0 in /  0.0 mm
06:12 42.3 °F /  5.7 °C 40.6 °F /  4.8 °C 30.4 in /  1028.3 hPa Calm   1 mph /  1.6 km/h 94 % 0 in /  0.0 mm
06:17 41.7 °F /  5.4 °C 39.9 °F /  4.4 °C 30.4 in /  1028.3 hPa Calm   1 mph /  1.6 km/h 93 % 0 in /  0.0 mm
06:22 41.4 °F /  5.2 °C 39.7 °F /  4.3 °C 30.4 in /  1028.3 hPa Calm   1 mph /  1.6 km/h 94 % 0 in /  0.0 mm
06:32 41.7 °F /  5.4 °C 40.5 °F /  4.7 °C 30.4 in /  1028.3 hPa North 1 mph /  1.6 km/h 1 mph /  1.6 km/h 95 % 0 in /  0.0 mm
06:37 41.7 °F /  5.4 °C 40.5 °F /  4.7 °C 30.4 in /  1028.3 hPa North 2 mph /  3.2 km/h 2 mph /  3.2 km/h 95 % 0 in /  0.0 mm
06:42 41.9 °F /  5.5 °C 40.6 °F /  4.8 °C 30.4 in /  1028.3 hPa Calm   2 mph /  3.2 km/h 95 % 0 in /  0.0 mm
06:47 41.7 °F /  5.4 °C 40.1 °F /  4.5 °C 30.4 in /  1028.3 hPa North 1 mph /  1.6 km/h 2 mph /  3.2 km/h 94 % 0 in /  0.0 mm
06:52 41.5 °F /  5.3 °C 40.3 °F /  4.6 °C 30.4 in /  1028.3 hPa Calm   2 mph /  3.2 km/h 95 % 0 in /  0.0 mm
06:57 41.5 °F /  5.3 °C 40.3 °F /  4.6 °C 30.4 in /  1028.3 hPa Calm   1 mph /  1.6 km/h 95 % 0 in /  0.0 mm
07:02 41.2 °F /  5.1 °C 39.6 °F /  4.2 °C 30.4 in /  1028.3 hPa Calm   1 mph /  1.6 km/h 94 % 0 in /  0.0 mm
07:12 41.2 °F /  5.1 °C 39.9 °F /  4.4 °C 30.4 in /  1028.3 hPa Calm     95 % 0 in /  0.0 mm
07:22 40.8 °F /  4.9 °C 39.6 °F /  4.2 °C 30.4 in /  1028.7 hPa Calm     95 % 0 in /  0.0 mm
07:32 41.2 °F /  5.1 °C 40.1 °F /  4.5 °C 30.4 in /  1028.7 hPa Calm     96 % 0 in /  0.0 mm
07:42 40.8 °F /  4.9 °C 39.6 °F /  4.2 °C 30.4 in /  1028.7 hPa Calm     95 % 0 in /  0.0 mm
07:47 40.6 °F /  4.8 °C 39.4 °F /  4.1 °C 30.4 in /  1028.7 hPa Calm     95 % 0 in /  0.0 mm
07:52 40.8 °F /  4.9 °C 39.6 °F /  4.2 °C 30.4 in /  1028.7 hPa Calm   1 mph /  1.6 km/h 95 % 0 in /  0.0 mm
07:57 41.2 °F /  5.1 °C 39.9 °F /  4.4 °C 30.4 in /  1028.7 hPa Calm   1 mph /  1.6 km/h 95 % 0 in /  0.0 mm
08:02 41.5 °F /  5.3 °C 40.5 °F /  4.7 °C 30.4 in /  1029.0 hPa Calm   1 mph /  1.6 km/h 96 % 0 in /  0.0 mm
08:12 41.5 °F /  5.3 °C 40.3 °F /  4.6 °C 30.4 in /  1029.0 hPa Calm     95 % 0 in /  0.0 mm
08:17 41.7 °F /  5.4 °C 40.5 °F /  4.7 °C 30.4 in /  1029.0 hPa Calm     95 % 0 in /  0.0 mm
08:22 42.1 °F /  5.6 °C 40.8 °F /  4.9 °C 30.4 in /  1029.0 hPa Calm     95 % 0 in /  0.0 mm
08:27 42.4 °F /  5.8 °C 41.2 °F /  5.1 °C 30.4 in /  1029.0 hPa Calm     95 % 0 in /  0.0 mm
08:32 43.9 °F /  6.6 °C 42.8 °F /  6.0 °C 30.4 in /  1029.0 hPa Calm     96 % 0 in /  0.0 mm
08:42 45.3 °F /  7.4 °C 44.1 °F /  6.7 °C 30.4 in /  1029.0 hPa Calm     95 % 0 in /  0.0 mm
08:52 46 °F /  7.8 °C 44.4 °F /  6.9 °C 30.4 in /  1029.3 hPa Calm     94 % 0 in /  0.0 mm
09:02 49.3 °F /  9.6 °C 47.7 °F /  8.7 °C 30.4 in /  1029.3 hPa Calm     94 % 0 in /  0.0 mm
09:12 51.3 °F /  10.7 °C 48.4 °F /  9.1 °C 30.4 in /  1029.3 hPa Calm     90 % 0 in /  0.0 mm
09:17 49.8 °F /  9.9 °C 45.1 °F /  7.3 °C 30.4 in /  1029.3 hPa SE 1 mph /  1.6 km/h   84 % 0 in /  0.0 mm
09:22 48.6 °F /  9.2 °C 44.2 °F /  6.8 °C 30.4 in /  1029.3 hPa ESE 1 mph /  1.6 km/h 2 mph /  3.2 km/h 85 % 0 in /  0.0 mm
09:27 48 °F /  8.9 °C 44.4 °F /  6.9 °C 30.4 in /  1029.3 hPa SE 1 mph /  1.6 km/h 2 mph /  3.2 km/h 87 % 0 in /  0.0 mm
09:32 47.7 °F /  8.7 °C 44.2 °F /  6.8 °C 30.4 in /  1029.3 hPa SE 1 mph /  1.6 km/h 2 mph /  3.2 km/h 88 % 0 in /  0.0 mm
09:37 47.7 °F /  8.7 °C 44.6 °F /  7.0 °C 30.4 in /  1029.3 hPa Calm   2 mph /  3.2 km/h 89 % 0 in /  0.0 mm
09:42 48 °F /  8.9 °C 45 °F /  7.2 °C 30.4 in /  1029.3 hPa Calm   2 mph /  3.2 km/h 89 % 0 in /  0.0 mm
09:52 49.8 °F /  9.9 °C 46 °F /  7.8 °C 30.4 in /  1029.3 hPa Calm   1 mph /  1.6 km/h 87 % 0 in /  0.0 mm
10:02 50.7 °F /  10.4 °C 46.8 °F /  8.2 °C 30.4 in /  1029.3 hPa Calm     86 % 0 in /  0.0 mm
10:07 51.4 °F /  10.8 °C 47.1 °F /  8.4 °C 30.4 in /  1029.3 hPa Calm     85 % 0 in /  0.0 mm
10:12 52 °F /  11.1 °C 47.3 °F /  8.5 °C 30.4 in /  1029.7 hPa Calm     84 % 0 in /  0.0 mm
10:17 52.7 °F /  11.5 °C 48 °F /  8.9 °C 30.4 in /  1029.7 hPa Calm     84 % 0 in /  0.0 mm
10:22 53.4 °F /  11.9 °C 48.4 °F /  9.1 °C 30.4 in /  1029.7 hPa Calm     83 % 0 in /  0.0 mm
10:32 54.9 °F /  12.7 °C 49.1 °F /  9.5 °C 30.4 in /  1029.7 hPa SE 1 mph /  1.6 km/h   81 % 0 in /  0.0 mm
10:42 55.6 °F /  13.1 °C 48.6 °F /  9.2 °C 30.4 in /  1029.7 hPa Calm   1 mph /  1.6 km/h 77 % 0 in /  0.0 mm
10:52 55.2 °F /  12.9 °C 48.6 °F /  9.2 °C 30.4 in /  1029.7 hPa Calm   2 mph /  3.2 km/h 78 % 0 in /  0.0 mm
11:02 55.6 °F /  13.1 °C 48.6 °F /  9.2 °C 30.4 in /  1029.7 hPa ESE 1 mph /  1.6 km/h 3 mph /  4.8 km/h 77 % 0 in /  0.0 mm
11:12 56.5 °F /  13.6 °C 49.3 °F /  9.6 °C 30.4 in /  1029.7 hPa Calm   3 mph /  4.8 km/h 77 % 0 in /  0.0 mm
11:17 56.8 °F /  13.8 °C 49.3 °F /  9.6 °C 30.4 in /  1029.7 hPa SE 1 mph /  1.6 km/h 3 mph /  4.8 km/h 76 % 0 in /  0.0 mm
11:22 57.2 °F /  14.0 °C 49.6 °F /  9.8 °C 30.4 in /  1029.7 hPa East 1 mph /  1.6 km/h 3 mph /  4.8 km/h 76 % 0 in /  0.0 mm
11:32 58.6 °F /  14.8 °C 50.7 °F /  10.4 °C 30.4 in /  1029.7 hPa SE 2 mph /  3.2 km/h 3 mph /  4.8 km/h 75 % 0 in /  0.0 mm
11:37 59 °F /  15.0 °C 50.7 °F /  10.4 °C 30.4 in /  1029.7 hPa SE 3 mph /  4.8 km/h 3 mph /  4.8 km/h 74 % 0 in /  0.0 mm
11:42 59 °F /  15.0 °C 50.4 °F /  10.2 °C 30.4 in /  1029.7 hPa ESE 3 mph /  4.8 km/h 4 mph /  6.4 km/h 73 % 0 in /  0.0 mm
11:47 59.4 °F /  15.2 °C 51.1 °F /  10.6 °C 30.4 in /  1029.7 hPa ESE 1 mph /  1.6 km/h 4 mph /  6.4 km/h 74 % 0 in /  0.0 mm
11:52 60.3 °F /  15.7 °C 50.4 °F /  10.2 °C 30.4 in /  1029.7 hPa SE 3 mph /  4.8 km/h 4 mph /  6.4 km/h 70 % 0 in /  0.0 mm
12:02 61 °F /  16.1 °C 50.4 °F /  10.2 °C 30.4 in /  1029.7 hPa SSE 3 mph /  4.8 km/h 4 mph /  6.4 km/h 68 % 0 in /  0.0 mm
12:07 61.3 °F /  16.3 °C 50.4 °F /  10.2 °C 30.4 in /  1029.7 hPa SSE 1 mph /  1.6 km/h 4 mph /  6.4 km/h 67 % 0 in /  0.0 mm
12:12 61.5 °F /  16.4 °C 50.5 °F /  10.3 °C 30.4 in /  1029.7 hPa ESE 3 mph /  4.8 km/h 4 mph /  6.4 km/h 67 % 0 in /  0.0 mm
12:17 61.3 °F /  16.3 °C 49.8 °F /  9.9 °C 30.4 in /  1029.7 hPa Calm   4 mph /  6.4 km/h 66 % 0 in /  0.0 mm
12:22 61.9 °F /  16.6 °C 50.4 °F /  10.2 °C 30.4 in /  1029.7 hPa SSE 1 mph /  1.6 km/h 4 mph /  6.4 km/h 66 % 0 in /  0.0 mm
12:32 62.2 °F /  16.8 °C 48.2 °F /  9.0 °C 30.4 in /  1029.3 hPa SSW 2 mph /  3.2 km/h 4 mph /  6.4 km/h 60 % 0 in /  0.0 mm
12:37 62.4 °F /  16.9 °C 48.7 °F /  9.3 °C 30.4 in /  1029.3 hPa South 3 mph /  4.8 km/h 6 mph /  9.7 km/h 61 % 0 in /  0.0 mm
12:42 63 °F /  17.2 °C 48.4 °F /  9.1 °C 30.4 in /  1029.3 hPa SSW 1 mph /  1.6 km/h 6 mph /  9.7 km/h 59 % 0 in /  0.0 mm
12:47 63.1 °F /  17.3 °C 48.2 °F /  9.0 °C 30.4 in /  1029.3 hPa SW 1 mph /  1.6 km/h 6 mph /  9.7 km/h 58 % 0 in /  0.0 mm
12:52 63.1 °F /  17.3 °C 49.1 °F /  9.5 °C 30.4 in /  1029.3 hPa SW 2 mph /  3.2 km/h 4 mph /  6.4 km/h 60 % 0 in /  0.0 mm
13:02 63.3 °F /  17.4 °C 49.6 °F /  9.8 °C 30.4 in /  1029.0 hPa SSE 4 mph /  6.4 km/h 4 mph /  6.4 km/h 61 % 0 in /  0.0 mm
13:07 63.3 °F /  17.4 °C 49.3 °F /  9.6 °C 30.4 in /  1029.0 hPa SSW 3 mph /  4.8 km/h 4 mph /  6.4 km/h 60 % 0 in /  0.0 mm
13:17 63.5 °F /  17.5 °C 48.9 °F /  9.4 °C 30.4 in /  1029.0 hPa ESE 3 mph /  4.8 km/h 6 mph /  9.7 km/h 59 % 0 in /  0.0 mm
13:22 63.9 °F /  17.7 °C 48.7 °F /  9.3 °C 30.4 in /  1029.0 hPa SE 3 mph /  4.8 km/h 7 mph /  11.3 km/h 58 % 0 in /  0.0 mm
13:32 63.5 °F /  17.5 °C 47.1 °F /  8.4 °C 30.4 in /  1028.7 hPa SSW 2 mph /  3.2 km/h 6 mph /  9.7 km/h 55 % 0 in /  0.0 mm
13:37 64 °F /  17.8 °C 48 °F /  8.9 °C 30.4 in /  1028.7 hPa WSW 1 mph /  1.6 km/h 6 mph /  9.7 km/h 56 % 0 in /  0.0 mm
13:42 64.4 °F /  18.0 °C 47.5 °F /  8.6 °C 30.4 in /  1028.7 hPa SSW 3 mph /  4.8 km/h 6 mph /  9.7 km/h 54 % 0 in /  0.0 mm
13:52 65.1 °F /  18.4 °C 46 °F /  7.8 °C 30.4 in /  1028.7 hPa SSE 2 mph /  3.2 km/h 5 mph /  8.0 km/h 50 % 0 in /  0.0 mm
13:57 65.1 °F /  18.4 °C 44.4 °F /  6.9 °C 30.4 in /  1028.7 hPa SW 2 mph /  3.2 km/h 5 mph /  8.0 km/h 47 % 0 in /  0.0 mm
14:02 65.3 °F /  18.5 °C 45.7 °F /  7.6 °C 30.4 in /  1028.7 hPa WSW 2 mph /  3.2 km/h 5 mph /  8.0 km/h 49 % 0 in /  0.0 mm
14:12 65.5 °F /  18.6 °C 43.5 °F /  6.4 °C 30.4 in /  1028.7 hPa SSW 3 mph /  4.8 km/h 5 mph /  8.0 km/h 45 % 0 in /  0.0 mm
14:17 65.1 °F /  18.4 °C 46 °F /  7.8 °C 30.4 in /  1028.7 hPa SSW 4 mph /  6.4 km/h 5 mph /  8.0 km/h 50 % 0 in /  0.0 mm
14:22 65.3 °F /  18.5 °C 44.1 °F /  6.7 °C 30.4 in /  1028.7 hPa Calm   7 mph /  11.3 km/h 46 % 0 in /  0.0 mm
14:32 66 °F /  18.9 °C 46.4 °F /  8.0 °C 30.4 in /  1028.3 hPa ENE 2 mph /  3.2 km/h 7 mph /  11.3 km/h 49 % 0 in /  0.0 mm
14:37 66 °F /  18.9 °C 46.8 °F /  8.2 °C 30.4 in /  1028.3 hPa Calm   5 mph /  8.0 km/h 50 % 0 in /  0.0 mm
14:42 66.2 °F /  19.0 °C 45.3 °F /  7.4 °C 30.4 in /  1028.0 hPa East 4 mph /  6.4 km/h 5 mph /  8.0 km/h 47 % 0 in /  0.0 mm
14:52 65.8 °F /  18.8 °C 45.7 °F /  7.6 °C 30.4 in /  1028.0 hPa East 3 mph /  4.8 km/h 6 mph /  9.7 km/h 48 % 0 in /  0.0 mm
14:57 66 °F /  18.9 °C 44.1 °F /  6.7 °C 30.4 in /  1028.0 hPa SSW 3 mph /  4.8 km/h 6 mph /  9.7 km/h 45 % 0 in /  0.0 mm
15:02 66.2 °F /  19.0 °C 44.8 °F /  7.1 °C 30.4 in /  1028.0 hPa NE 3 mph /  4.8 km/h 6 mph /  9.7 km/h 46 % 0 in /  0.0 mm
15:12 66.6 °F /  19.2 °C 45.1 °F /  7.3 °C 30.4 in /  1027.7 hPa SSW 3 mph /  4.8 km/h 6 mph /  9.7 km/h 46 % 0 in /  0.0 mm
15:17 66.7 °F /  19.3 °C 45.3 °F /  7.4 °C 30.4 in /  1027.7 hPa SE 2 mph /  3.2 km/h 3 mph /  4.8 km/h 46 % 0 in /  0.0 mm
15:22 66.4 °F /  19.1 °C 45 °F /  7.2 °C 30.4 in /  1027.7 hPa SE 3 mph /  4.8 km/h 6 mph /  9.7 km/h 46 % 0 in /  0.0 mm
15:27 66.6 °F /  19.2 °C 45.1 °F /  7.3 °C 30.4 in /  1027.7 hPa South 3 mph /  4.8 km/h 6 mph /  9.7 km/h 46 % 0 in /  0.0 mm
15:32 66.7 °F /  19.3 °C 44.8 °F /  7.1 °C 30.4 in /  1027.7 hPa SSE 2 mph /  3.2 km/h 6 mph /  9.7 km/h 45 % 0 in /  0.0 mm
15:42 66.4 °F /  19.1 °C 45 °F /  7.2 °C 30.4 in /  1027.7 hPa WNW 2 mph /  3.2 km/h 7 mph /  11.3 km/h 46 % 0 in /  0.0 mm
15:47 66.6 °F /  19.2 °C 44.1 °F /  6.7 °C 30.3 in /  1027.3 hPa WSW 4 mph /  6.4 km/h 7 mph /  11.3 km/h 44 % 0 in /  0.0 mm
15:52 66 °F /  18.9 °C 44.6 °F /  7.0 °C 30.3 in /  1027.3 hPa SSW 2 mph /  3.2 km/h 8 mph /  12.9 km/h 46 % 0 in /  0.0 mm
15:57 66.7 °F /  19.3 °C 45.3 °F /  7.4 °C 30.3 in /  1027.3 hPa ESE 3 mph /  4.8 km/h 8 mph /  12.9 km/h 46 % 0 in /  0.0 mm
16:02 67.1 °F /  19.5 °C 44.4 °F /  6.9 °C 30.3 in /  1027.3 hPa South 4 mph /  6.4 km/h 8 mph /  12.9 km/h 44 % 0 in /  0.0 mm
16:12 66.7 °F /  19.3 °C 44.1 °F /  6.7 °C 30.3 in /  1027.0 hPa WSW 2 mph /  3.2 km/h 6 mph /  9.7 km/h 44 % 0 in /  0.0 mm
16:17 66.7 °F /  19.3 °C 44.1 °F /  6.7 °C 30.3 in /  1027.0 hPa SW 6 mph /  9.7 km/h 7 mph /  11.3 km/h 44 % 0 in /  0.0 mm
16:22 66.9 °F /  19.4 °C 43.7 °F /  6.5 °C 30.3 in /  1027.0 hPa SSE 3 mph /  4.8 km/h 7 mph /  11.3 km/h 43 % 0 in /  0.0 mm
16:32 67.8 °F /  19.9 °C 44.4 °F /  6.9 °C 30.3 in /  1027.0 hPa WSW 1 mph /  1.6 km/h 7 mph /  11.3 km/h 43 % 0 in /  0.0 mm
16:42 68.4 °F /  20.2 °C 43.7 °F /  6.5 °C 30.3 in /  1026.6 hPa NNE 1 mph /  1.6 km/h 4 mph /  6.4 km/h 41 % 0 in /  0.0 mm
16:47 68.9 °F /  20.5 °C 44.2 °F /  6.8 °C 30.3 in /  1026.6 hPa SSE 1 mph /  1.6 km/h 3 mph /  4.8 km/h 41 % 0 in /  0.0 mm
16:52 69.1 °F /  20.6 °C 45.7 °F /  7.6 °C 30.3 in /  1026.6 hPa Calm   3 mph /  4.8 km/h 43 % 0 in /  0.0 mm
16:57 69.1 °F /  20.6 °C 43.7 °F /  6.5 °C 30.3 in /  1026.6 hPa WSW 3 mph /  4.8 km/h 3 mph /  4.8 km/h 40 % 0 in /  0.0 mm
17:02 68.4 °F /  20.2 °C 44.4 °F /  6.9 °C 30.3 in /  1026.6 hPa Calm   3 mph /  4.8 km/h 42 % 0 in /  0.0 mm
17:12 67.6 °F /  19.8 °C 43.7 °F /  6.5 °C 30.3 in /  1026.3 hPa WSW 3 mph /  4.8 km/h 4 mph /  6.4 km/h 42 % 0 in /  0.0 mm
17:17 67.8 °F /  19.9 °C 44.4 °F /  6.9 °C 30.3 in /  1026.3 hPa West 1 mph /  1.6 km/h 6 mph /  9.7 km/h 43 % 0 in /  0.0 mm
17:22 68.2 °F /  20.1 °C 44.8 °F /  7.1 °C 30.3 in /  1026.3 hPa Calm   6 mph /  9.7 km/h 43 % 0 in /  0.0 mm
17:32 68.2 °F /  20.1 °C 45.5 °F /  7.5 °C 30.3 in /  1026.3 hPa Calm   5 mph /  8.0 km/h 44 % 0 in /  0.0 mm
17:42 68.2 °F /  20.1 °C 46 °F /  7.8 °C 30.3 in /  1026.3 hPa Calm   3 mph /  4.8 km/h 45 % 0 in /  0.0 mm
17:52 68.4 °F /  20.2 °C 45.7 °F /  7.6 °C 30.3 in /  1026.3 hPa Calm   3 mph /  4.8 km/h 44 % 0 in /  0.0 mm
17:57 68.5 °F /  20.3 °C 46.4 °F /  8.0 °C 30.3 in /  1026.0 hPa Calm   3 mph /  4.8 km/h 45 % 0 in /  0.0 mm
18:02 68.4 °F /  20.2 °C 45.7 °F /  7.6 °C 30.3 in /  1026.3 hPa Calm   4 mph /  6.4 km/h 44 % 0 in /  0.0 mm
18:12 68 °F /  20.0 °C 45.3 °F /  7.4 °C 30.3 in /  1026.0 hPa NNW 1 mph /  1.6 km/h 4 mph /  6.4 km/h 44 % 0 in /  0.0 mm
18:17 68.4 °F /  20.2 °C 45.7 °F /  7.6 °C 30.3 in /  1026.0 hPa NW 1 mph /  1.6 km/h 3 mph /  4.8 km/h 44 % 0 in /  0.0 mm
18:22 68.4 °F /  20.2 °C 46.2 °F /  7.9 °C 30.3 in /  1026.0 hPa WNW 2 mph /  3.2 km/h 3 mph /  4.8 km/h 45 % 0 in /  0.0 mm
18:32 68.2 °F /  20.1 °C 46.6 °F /  8.1 °C 30.3 in /  1026.0 hPa West 1 mph /  1.6 km/h 3 mph /  4.8 km/h 46 % 0 in /  0.0 mm
18:42 67.6 °F /  19.8 °C 46 °F /  7.8 °C 30.3 in /  1026.0 hPa West 1 mph /  1.6 km/h 6 mph /  9.7 km/h 46 % 0 in /  0.0 mm
18:52 67.5 °F /  19.7 °C 46 °F /  7.8 °C 30.3 in /  1026.0 hPa West 1 mph /  1.6 km/h 6 mph /  9.7 km/h 46 % 0 in /  0.0 mm
19:02 67.6 °F /  19.8 °C 46 °F /  7.8 °C 30.3 in /  1026.3 hPa West 1 mph /  1.6 km/h 5 mph /  8.0 km/h 46 % 0 in /  0.0 mm
19:12 67.6 °F /  19.8 °C 46.8 °F /  8.2 °C 30.3 in /  1026.3 hPa Calm   4 mph /  6.4 km/h 47 % 0 in /  0.0 mm
19:17 67.8 °F /  19.9 °C 46.9 °F /  8.3 °C 30.3 in /  1026.3 hPa Calm   4 mph /  6.4 km/h 47 % 0 in /  0.0 mm
19:22 67.1 °F /  19.5 °C 46.2 °F /  7.9 °C 30.3 in /  1026.3 hPa Calm   4 mph /  6.4 km/h 47 % 0 in /  0.0 mm
19:32 66.6 °F /  19.2 °C 45.7 °F /  7.6 °C 30.3 in /  1026.3 hPa Calm   1 mph /  1.6 km/h 47 % 0 in /  0.0 mm
19:42 66 °F /  18.9 °C 45.7 °F /  7.6 °C 30.3 in /  1026.3 hPa Calm     48 % 0 in /  0.0 mm
19:52 65.1 °F /  18.4 °C 45.5 °F /  7.5 °C 30.3 in /  1026.3 hPa Calm     49 % 0 in /  0.0 mm
19:57 64.9 °F /  18.3 °C 45.3 °F /  7.4 °C 30.3 in /  1026.3 hPa Calm     49 % 0 in /  0.0 mm
20:02 64.6 °F /  18.1 °C 45.5 °F /  7.5 °C 30.3 in /  1026.3 hPa Calm     50 % 0 in /  0.0 mm
20:07 64.2 °F /  17.9 °C 45.1 °F /  7.3 °C 30.3 in /  1026.3 hPa Calm     50 % 0 in /  0.0 mm
20:12 64 °F /  17.8 °C 45 °F /  7.2 °C 30.3 in /  1026.3 hPa Calm     50 % 0 in /  0.0 mm
20:17 63.9 °F /  17.7 °C 45.3 °F /  7.4 °C 30.3 in /  1026.3 hPa Calm     51 % 0 in /  0.0 mm
20:22 63.5 °F /  17.5 °C 45.5 °F /  7.5 °C 30.3 in /  1026.3 hPa Calm     52 % 0 in /  0.0 mm
20:27 63.1 °F /  17.3 °C 45.7 °F /  7.6 °C 30.3 in /  1026.3 hPa Calm     53 % 0 in /  0.0 mm
20:32 62.6 °F /  17.0 °C 45.1 °F /  7.3 °C 30.3 in /  1026.6 hPa Calm     53 % 0 in /  0.0 mm
20:42 61.3 °F /  16.3 °C 46 °F /  7.8 °C 30.3 in /  1026.6 hPa North 1 mph /  1.6 km/h   57 % 0 in /  0.0 mm
20:52 60.6 °F /  15.9 °C 45.3 °F /  7.4 °C 30.3 in /  1026.6 hPa Calm   2 mph /  3.2 km/h 57 % 0 in /  0.0 mm
20:57 60.3 °F /  15.7 °C 45.5 °F /  7.5 °C 30.3 in /  1026.6 hPa Calm   2 mph /  3.2 km/h 58 % 0 in /  0.0 mm
21:02 60.1 °F /  15.6 °C 45.3 °F /  7.4 °C 30.3 in /  1026.6 hPa NNW 1 mph /  1.6 km/h 1 mph /  1.6 km/h 58 % 0 in /  0.0 mm
21:07 59.9 °F /  15.5 °C 45.1 °F /  7.3 °C 30.3 in /  1026.6 hPa NNW 1 mph /  1.6 km/h 2 mph /  3.2 km/h 58 % 0 in /  0.0 mm
21:17 59.5 °F /  15.3 °C 45.7 °F /  7.6 °C 30.3 in /  1027.0 hPa Calm   2 mph /  3.2 km/h 60 % 0 in /  0.0 mm
21:22 59.2 °F /  15.1 °C 45.3 °F /  7.4 °C 30.3 in /  1027.0 hPa NNW 1 mph /  1.6 km/h 1 mph /  1.6 km/h 60 % 0 in /  0.0 mm
21:32 58.6 °F /  14.8 °C 45.3 °F /  7.4 °C 30.3 in /  1027.0 hPa NNW 1 mph /  1.6 km/h 1 mph /  1.6 km/h 61 % 0 in /  0.0 mm
21:42 58.3 °F /  14.6 °C 45 °F /  7.2 °C 30.3 in /  1027.0 hPa North 1 mph /  1.6 km/h 2 mph /  3.2 km/h 61 % 0 in /  0.0 mm
21:47 57.7 °F /  14.3 °C 44.8 °F /  7.1 °C 30.3 in /  1027.0 hPa NNW 1 mph /  1.6 km/h 3 mph /  4.8 km/h 62 % 0 in /  0.0 mm
21:52 57.4 °F /  14.1 °C 45 °F /  7.2 °C 30.3 in /  1027.0 hPa Calm   3 mph /  4.8 km/h 63 % 0 in /  0.0 mm
21:57 57.4 °F /  14.1 °C 44.4 °F /  6.9 °C 30.3 in /  1027.0 hPa North 1 mph /  1.6 km/h 3 mph /  4.8 km/h 62 % 0 in /  0.0 mm
22:02 56.8 °F /  13.8 °C 43.9 °F /  6.6 °C 30.3 in /  1027.0 hPa NNW 2 mph /  3.2 km/h 2 mph /  3.2 km/h 62 % 0 in /  0.0 mm
22:12 55.6 °F /  13.1 °C 44.4 °F /  6.9 °C 30.3 in /  1027.0 hPa WNW 1 mph /  1.6 km/h 2 mph /  3.2 km/h 66 % 0 in /  0.0 mm
22:22 55.2 °F /  12.9 °C 43.7 °F /  6.5 °C 30.3 in /  1027.3 hPa Calm   2 mph /  3.2 km/h 65 % 0 in /  0.0 mm
22:27 55.4 °F /  13.0 °C 44.2 °F /  6.8 °C 30.3 in /  1027.3 hPa Calm   1 mph /  1.6 km/h 66 % 0 in /  0.0 mm
22:32 55 °F /  12.8 °C 43.9 °F /  6.6 °C 30.3 in /  1027.3 hPa Calm   1 mph /  1.6 km/h 66 % 0 in /  0.0 mm
22:42 54.1 °F /  12.3 °C 44.2 °F /  6.8 °C 30.3 in /  1027.3 hPa WNW 1 mph /  1.6 km/h 1 mph /  1.6 km/h 69 % 0 in /  0.0 mm
22:47 54 °F /  12.2 °C 44.8 °F /  7.1 °C 30.3 in /  1027.3 hPa WNW 1 mph /  1.6 km/h 1 mph /  1.6 km/h 71 % 0 in /  0.0 mm
22:52 53.6 °F /  12.0 °C 45.1 °F /  7.3 °C 30.3 in /  1027.3 hPa Calm   1 mph /  1.6 km/h 73 % 0 in /  0.0 mm
22:57 53.4 °F /  11.9 °C 45.3 °F /  7.4 °C 30.3 in /  1027.3 hPa WNW 1 mph /  1.6 km/h 1 mph /  1.6 km/h 74 % 0 in /  0.0 mm
23:02 53.4 °F /  11.9 °C 45.3 °F /  7.4 °C 30.3 in /  1027.3 hPa WNW 1 mph /  1.6 km/h 1 mph /  1.6 km/h 74 % 0 in /  0.0 mm
23:12 54.3 °F /  12.4 °C 43.5 °F /  6.4 °C 30.3 in /  1027.3 hPa Calm   1 mph /  1.6 km/h 67 % 0 in /  0.0 mm
23:17 54.3 °F /  12.4 °C 43.5 °F /  6.4 °C 30.3 in /  1027.3 hPa Calm   1 mph /  1.6 km/h 67 % 0 in /  0.0 mm
23:22 54.1 °F /  12.3 °C 43.3 °F /  6.3 °C 30.3 in /  1027.3 hPa Calm   1 mph /  1.6 km/h 67 % 0 in /  0.0 mm
23:32 53.6 °F /  12.0 °C 43.3 °F /  6.3 °C 30.3 in /  1027.3 hPa North 1 mph /  1.6 km/h 1 mph /  1.6 km/h 68 % 0 in /  0.0 mm
23:37 53.8 °F /  12.1 °C 43.5 °F /  6.4 °C 30.3 in /  1027.3 hPa Calm   1 mph /  1.6 km/h 68 % 0 in /  0.0 mm
23:42 53.8 °F /  12.1 °C 43.9 °F /  6.6 °C 30.3 in /  1027.3 hPa North 1 mph /  1.6 km/h 1 mph /  1.6 km/h 69 % 0 in /  0.0 mm
23:47 54 °F /  12.2 °C 44.1 °F /  6.7 °C 30.3 in /  1027.3 hPa North 1 mph /  1.6 km/h 1 mph /  1.6 km/h 69 % 0 in /  0.0 mm
23:52 54.1 °F /  12.3 °C 43.9 °F /  6.6 °C 30.3 in /  1027.3 hPa Calm   2 mph /  3.2 km/h 68 % 0 in /  0.0 mm
23:57 54.1 °F /  12.3 °C 43.9 °F /  6.6 °C 30.3 in /  1027.3 hPa NNW 1 mph /  1.6 km/h 2 mph /  3.2 km/h 68 % 0 in /  0.0 mm
Meteo18
Compliments of Weather Underground - 4 mb

Script developed by  Jim McMurry - jmcmurry@mwt.net Adapted for the template by  Wim van der Kuil - Leuven-Template.eu

You find our weather info also at:

European Weather Network

Weather Underground

Equipment we use:

Weather-station
Davis Vue

Weather-program
Meteohub

Weather-server
Raspberry PI 2 B+

Provider
1 and 1

Davis Vue

Meteohub

Raspberry PI 2 B+

1 and 1